Time;durP1;ratioP1;P1;durP2;ratioP2;P2;SDS_P1;SDS_P2;PMS_P1;PMS_P2;Temp;Humidity;BMP_temperature;BMP_pressure;BME280_temperature;BME280_humidity;BME280_pressure;Samples;Min_cycle;Max_cycle;Signal;HPM_P1;HPM_P2
2023/04/28 00:00:35;;;;;;;;;;;;;;;13.49;100.00;100386.63;7356195;19;19986;-65
2023/04/28 00:03:02;;;;;;;;;;;;;;;13.49;100.00;100372.59;7358878;19;20467;-63
2023/04/28 00:05:29;;;;;;;;;;;;;;;13.49;100.00;100367.31;7361604;19;19978;-62
2023/04/28 00:07:56;;;;;;;;;;;;;;;13.49;100.00;100375.25;7362058;19;19919;-62
2023/04/28 00:10:23;;;;;;;;;;;;;;;13.49;100.00;100364.66;7360891;19;19925;-62
2023/04/28 00:12:50;;;;;;;;;;;;;;;13.46;100.00;100359.75;7361225;19;19925;-63
2023/04/28 00:15:17;;;;;;;;;;;;;;;13.47;100.00;100364.84;7355228;19;19911;-62
2023/04/28 00:17:44;;;;;;;;;;;;;;;13.46;100.00;100360.56;7360705;19;20384;-62
2023/04/28 00:20:11;;;;;;;;;;;;;;;13.47;100.00;100356.09;7360645;19;19915;-63
2023/04/28 00:22:39;;;;;;;;;;;;;;;13.46;100.00;100347.34;7361778;19;20529;-64
2023/04/28 00:25:06;;;;;;;;;;;;;;;13.46;100.00;100338.63;7358920;19;19953;-63
2023/04/28 00:27:35;;;;;;;;;;;;;;;13.46;100.00;100328.84;7362279;19;20449;-64
2023/04/28 00:30:02;;;;;;;;;;;;;;;13.46;100.00;100334.13;7356221;19;19926;-61
2023/04/28 00:32:29;;;;;;;;;;;;;;;13.47;100.00;100337.59;7359834;19;20321;-63
2023/04/28 00:34:56;;;;;;;;;;;;;;;13.45;100.00;100331.69;7360185;19;20547;-62
2023/04/28 00:37:23;;;;;;;;;;;;;;;13.46;100.00;100335.97;7360654;19;19926;-62
2023/04/28 00:39:54;;;;;;;;;;;;;;;13.46;100.00;100331.47;7360967;19;19939;-62
2023/04/28 00:42:22;;;;;;;;;;;;;;;13.47;100.00;100333.13;7360192;19;19938;-62
2023/04/28 00:44:49;;;;;;;;;;;;;;;13.50;100.00;100329.31;7356092;19;19929;-64
2023/04/28 00:47:16;;;;;;;;;;;;;;;13.48;100.00;100326.84;7358325;19;20010;-62
2023/04/28 00:49:44;;;;;;;;;;;;;;;13.49;100.00;100314.44;7359880;19;20477;-63
2023/04/28 00:52:11;;;;;;;;;;;;;;;13.48;100.00;100318.09;7359427;19;20010;-63
2023/04/28 00:54:38;;;;;;;;;;;;;;;13.50;100.00;100318.75;7358493;19;20599;-63
2023/04/28 00:57:05;;;;;;;;;;;;;;;13.52;100.00;100316.72;7359554;19;19930;-64
2023/04/28 00:59:37;;;;;;;;;;;;;;;13.52;100.00;100330.75;7354782;19;20479;-64
2023/04/28 01:02:05;;;;;;;;;;;;;;;13.52;100.00;100317.53;7357769;19;19910;-65
2023/04/28 01:04:32;;;;;;;;;;;;;;;13.53;100.00;100324.47;7360211;19;20375;-63
2023/04/28 01:07:00;;;;;;;;;;;;;;;13.54;100.00;100323.47;7360553;19;19941;-62
2023/04/28 01:09:27;;;;;;;;;;;;;;;13.55;100.00;100324.28;7358006;19;20401;-63
2023/04/28 01:11:54;;;;;;;;;;;;;;;13.56;100.00;100323.28;7355692;19;19990;-62
2023/04/28 01:14:21;;;;;;;;;;;;;;;13.57;100.00;100316.97;7359181;19;20367;-64
2023/04/28 01:16:48;;;;;;;;;;;;;;;13.59;100.00;100318.44;7359088;19;20801;-63
2023/04/28 01:19:19;;;;;;;;;;;;;;;13.60;100.00;100324.56;7358537;19;20292;-63
2023/04/28 01:21:46;;;;;;;;;;;;;;;13.61;100.00;100323.56;7358437;19;19926;-62
2023/04/28 01:24:13;;;;;;;;;;;;;;;13.60;100.00;100325.38;7359951;19;19914;-62
2023/04/28 01:26:41;;;;;;;;;;;;;;;13.61;100.00;100320.91;7355259;19;19915;-62
2023/04/28 01:29:07;;;;;;;;;;;;;;;13.63;100.00;100313.59;7355284;19;20399;-63
2023/04/28 01:31:35;;;;;;;;;;;;;;;13.65;100.00;100315.06;7358469;19;19911;-62
2023/04/28 01:34:02;;;;;;;;;;;;;;;13.69;100.00;100311.03;7360088;19;20364;-63
2023/04/28 01:36:29;;;;;;;;;;;;;;;13.67;100.00;100310.41;7357219;19;20404;-63
2023/04/28 01:38:56;;;;;;;;;;;;;;;13.68;100.00;100309.41;7360494;19;20199;-63
2023/04/28 01:41:23;;;;;;;;;;;;;;;13.66;100.00;100311.38;7365684;19;20193;-62
2023/04/28 01:43:51;;;;;;;;;;;;;;;13.65;100.00;100314.25;7367915;19;20422;-63
2023/04/28 01:46:18;;;;;;;;;;;;;;;13.65;100.00;100315.06;7361318;19;19930;-63
2023/04/28 01:48:45;;;;;;;;;;;;;;;13.66;100.00;100307.97;7365099;19;19918;-62
2023/04/28 01:51:12;;;;;;;;;;;;;;;13.66;100.00;100306.09;7364307;19;19954;-63
2023/04/28 01:53:39;;;;;;;;;;;;;;;13.67;100.00;100306.94;7366457;19;19952;-62
2023/04/28 01:56:06;;;;;;;;;;;;;;;13.69;100.00;100299.66;7363772;19;20511;-63
2023/04/28 01:58:33;;;;;;;;;;;;;;;13.72;100.00;100307.19;7366635;19;19939;-63
2023/04/28 02:01:00;;;;;;;;;;;;;;;13.73;100.00;100303.53;7359982;19;20271;-62
2023/04/28 02:03:27;;;;;;;;;;;;;;;13.75;100.00;100308.66;7366255;19;19923;-63
2023/04/28 02:05:54;;;;;;;;;;;;;;;13.75;100.00;100309.47;7363374;19;19915;-65
2023/04/28 02:08:21;;;;;;;;;;;;;;;13.74;100.00;100299.09;7366982;19;19914;-62
2023/04/28 02:10:48;;;;;;;;;;;;;;;13.75;100.00;100304.19;7364902;19;21303;-62
2023/04/28 02:13:16;;;;;;;;;;;;;;;13.78;100.00;100308.28;7363943;19;19915;-61
2023/04/28 02:15:43;;;;;;;;;;;;;;;13.79;100.00;100308.09;7361244;19;20539;-62
2023/04/28 02:18:10;;;;;;;;;;;;;;;13.82;100.00;100310.34;7364321;19;19911;-63
2023/04/28 02:20:37;;;;;;;;;;;;;;;13.83;100.00;100317.28;7364880;19;19914;-62
2023/04/28 02:23:04;;;;;;;;;;;;;;;13.86;100.00;100314.28;7363693;19;21787;-63
2023/04/28 02:25:31;;;;;;;;;;;;;;;13.89;100.00;100310.44;7361965;19;21907;-63
2023/04/28 02:27:58;;;;;;;;;;;;;;;13.92;100.00;100313.53;7364443;19;20015;-64
2023/04/28 02:30:25;;;;;;;;;;;;;;;13.94;100.00;100316.81;7362282;19;19918;-62
2023/04/28 02:32:52;;;;;;;;;;;;;;;13.96;100.00;100313.97;7364630;19;19954;-61
2023/04/28 02:35:20;;;;;;;;;;;;;;;13.97;100.00;100315.59;7362196;19;19917;-62
2023/04/28 02:37:47;;;;;;;;;;;;;;;14.00;100.00;100316.06;7364669;19;20220;-62
2023/04/28 02:40:14;;;;;;;;;;;;;;;14.03;100.00;100315.69;7363967;19;19922;-62
2023/04/28 02:42:41;;;;;;;;;;;;;;;14.04;100.00;100312.03;7363014;19;19990;-64
2023/04/28 02:45:08;;;;;;;;;;;;;;;14.05;100.00;100315.50;7361289;19;19919;-62
2023/04/28 02:47:35;;;;;;;;;;;;;;;14.05;100.00;100315.50;7362832;19;19915;-62
2023/04/28 02:50:03;;;;;;;;;;;;;;;14.05;100.00;100316.31;7362261;19;20010;-64
2023/04/28 02:52:30;;;;;;;;;;;;;;;14.07;100.00;100322.22;7360656;19;20317;-63
2023/04/28 02:54:57;;;;;;;;;;;;;;;14.08;100.00;100313.28;7358509;19;20191;-62
2023/04/28 02:57:26;;;;;;;;;;;;;;;14.09;100.00;100312.28;7364216;19;19911;-63
2023/04/28 02:59:53;;;;;;;;;;;;;;;14.13;100.00;100307.44;7358640;19;20384;-63
2023/04/28 03:02:21;;;;;;;;;;;;;;;14.12;100.00;100306.59;7362398;19;19947;-61
2023/04/28 03:04:49;;;;;;;;;;;;;;;14.16;100.00;100309.72;7363417;19;19953;-63
2023/04/28 03:07:16;;;;;;;;;;;;;;;14.18;100.00;100307.69;7357659;19;20264;-62
2023/04/28 03:09:45;;;;;;;;;;;;;;;14.20;100.00;100307.50;7363290;19;19919;-62
2023/04/28 03:12:12;;;;;;;;;;;;;;;14.22;100.00;100306.28;7362011;19;19915;-65
2023/04/28 03:14:39;;;;;;;;;;;;;;;14.20;100.00;100313.63;7363087;19;19919;-63
2023/04/28 03:17:09;;;;;;;;;;;;;;;14.22;100.00;100310.78;7361355;19;19918;-62
2023/04/28 03:19:36;;;;;;;;;;;;;;;14.21;100.00;100311.78;7357293;19;19915;-61
2023/04/28 03:22:03;;;;;;;;;;;;;;;14.21;100.00;100319.72;7361446;19;19947;-62
2023/04/28 03:24:30;;;;;;;;;;;;;;;14.20;100.00;100305.69;7362729;19;19922;-63
2023/04/28 03:26:57;;;;;;;;;;;;;;;14.21;100.00;100317.09;7362070;19;19923;-63
2023/04/28 03:29:24;;;;;;;;;;;;;;;14.22;100.00;100316.88;7361532;19;20376;-63
2023/04/28 03:31:51;;;;;;;;;;;;;;;14.22;100.00;100324.03;7363000;19;19943;-63
2023/04/28 03:34:18;;;;;;;;;;;;;;;14.21;100.00;100312.63;7361873;19;19944;-63
2023/04/28 03:36:45;;;;;;;;;;;;;;;14.23;100.00;100312.41;7360648;19;20034;-62
2023/04/28 03:39:12;;;;;;;;;;;;;;;14.24;100.00;100316.69;7361817;19;19939;-63
2023/04/28 03:41:39;;;;;;;;;;;;;;;14.23;100.00;100321.16;7361094;19;20576;-63
2023/04/28 03:44:06;;;;;;;;;;;;;;;14.22;100.00;100324.81;7358673;19;19907;-62
2023/04/28 03:46:33;;;;;;;;;;;;;;;14.21;100.00;100320.56;7361224;19;19922;-62
2023/04/28 03:49:01;;;;;;;;;;;;;;;14.23;100.00;100326.47;7362819;19;19952;-63
2023/04/28 03:51:28;;;;;;;;;;;;;;;14.24;100.00;100324.63;7360433;19;21323;-63
2023/04/28 03:53:55;;;;;;;;;;;;;;;14.20;100.00;100320.72;7360351;19;20276;-63
2023/04/28 03:56:22;;;;;;;;;;;;;;;14.15;100.00;100329.25;7359940;19;19923;-62
2023/04/28 03:58:49;;;;;;;;;;;;;;;14.14;100.00;100312.53;7364579;19;19978;-63
2023/04/28 04:01:18;;;;;;;;;;;;;;;14.13;100.00;100321.47;7358736;19;19922;-63
2023/04/28 04:03:45;;;;;;;;;;;;;;;14.13;100.00;100321.47;7362943;19;19926;-64
2023/04/28 04:06:13;;;;;;;;;;;;;;;14.11;100.00;100323.50;7358307;19;19915;-63
2023/04/28 04:08:40;;;;;;;;;;;;;;;14.11;100.00;100317.41;7362964;19;19942;-62
2023/04/28 04:11:07;;;;;;;;;;;;;;;14.12;100.00;100316.38;7360750;19;19914;-63
2023/04/28 04:13:35;;;;;;;;;;;;;;;14.14;100.00;100324.94;7361914;19;19915;-63
2023/04/28 04:16:02;;;;;;;;;;;;;;;14.11;100.00;100327.97;7354496;19;20079;-63
2023/04/28 04:18:29;;;;;;;;;;;;;;;14.09;100.00;100330.81;7359558;19;19938;-61
2023/04/28 04:20:56;;;;;;;;;;;;;;;14.10;100.00;100328.97;7362257;19;20542;-63
2023/04/28 04:23:23;;;;;;;;;;;;;;;14.09;100.00;100329.97;7362118;19;19990;-62
2023/04/28 04:25:50;;;;;;;;;;;;;;;14.08;100.00;100338.91;7360360;19;19942;-63
2023/04/28 04:28:17;;;;;;;;;;;;;;;14.07;100.00;100340.75;7357869;19;19918;-63
2023/04/28 04:30:44;;;;;;;;;;;;;;;14.07;100.00;100343.38;7358281;19;20481;-62
2023/04/28 04:33:11;;;;;;;;;;;;;;;14.06;100.00;100343.59;7362358;19;19940;-61
2023/04/28 04:35:38;;;;;;;;;;;;;;;14.06;100.00;100347.06;7362724;19;19941;-62
2023/04/28 04:38:06;;;;;;;;;;;;;;;14.05;100.00;100350.72;7358938;19;20377;-62
2023/04/28 04:40:33;;;;;;;;;;;;;;;14.03;100.00;100352.72;7360732;19;19969;-63
2023/04/28 04:43:00;;;;;;;;;;;;;;;14.03;100.00;100351.91;7360999;19;20009;-63
2023/04/28 04:45:27;;;;;;;;;;;;;;;14.01;100.00;100357.38;7359049;19;19929;-62
2023/04/28 04:47:56;;;;;;;;;;;;;;;14.04;100.00;100358.81;7362517;19;20574;-63
2023/04/28 04:50:24;;;;;;;;;;;;;;;14.04;100.00;100357.00;7359204;19;19937;-62
2023/04/28 04:52:51;;;;;;;;;;;;;;;14.03;100.00;100352.72;7360080;19;19919;-62
2023/04/28 04:55:18;;;;;;;;;;;;;;;14.04;100.00;100354.34;7359236;19;19923;-62
2023/04/28 04:57:45;;;;;;;;;;;;;;;14.06;100.00;100357.66;7357619;19;19923;-63
2023/04/28 05:00:12;;;;;;;;;;;;;;;14.05;100.00;100365.75;7357251;19;20268;-63
2023/04/28 05:02:39;;;;;;;;;;;;;;;14.05;100.00;100352.53;7357718;19;19919;-62
2023/04/28 05:05:07;;;;;;;;;;;;;;;14.02;100.00;100366.94;7358126;19;19922;-63
2023/04/28 05:07:47;;;;;;;;;;;;;;;14.04;100.00;100359.66;7359389;19;19919;-63
2023/04/28 05:10:14;;;;;;;;;;;;;;;14.06;100.00;100364.75;7358642;19;19925;-62
2023/04/28 05:12:41;;;;;;;;;;;;;;;14.01;100.00;100364.50;7357474;19;20006;-62
2023/04/28 05:15:08;;;;;;;;;;;;;;;13.99;100.00;100364.69;7353830;19;19922;-66
2023/04/28 05:17:35;;;;;;;;;;;;;;;13.98;100.00;100368.31;7358385;19;19934;-64
2023/04/28 05:20:03;;;;;;;;;;;;;;;13.99;100.00;100369.16;7357661;19;20233;-64
2023/04/28 05:22:30;;;;;;;;;;;;;;;14.01;100.00;100372.44;7359821;19;19939;-63
2023/04/28 05:24:57;;;;;;;;;;;;;;;14.02;100.00;100382.00;7357259;19;20684;-63
2023/04/28 05:27:24;;;;;;;;;;;;;;;14.06;100.00;100378.81;7358520;19;19923;-64
2023/04/28 05:29:51;;;;;;;;;;;;;;;14.10;100.00;100387.19;7356361;19;20313;-62
2023/04/28 05:32:18;;;;;;;;;;;;;;;14.09;100.00;100383.72;7354732;19;19930;-62
2023/04/28 05:34:45;;;;;;;;;;;;;;;14.09;100.00;100386.38;7360018;19;20260;-62
2023/04/28 05:37:12;;;;;;;;;;;;;;;14.14;100.00;100385.81;7358350;19;19919;-63
2023/04/28 05:39:39;;;;;;;;;;;;;;;14.13;100.00;100389.44;7357172;19;19944;-65
2023/04/28 05:42:06;;;;;;;;;;;;;;;14.16;100.00;100385.63;7356678;19;19987;-63
2023/04/28 05:44:33;;;;;;;;;;;;;;;14.16;100.00;100381.16;7357339;19;20826;-63
2023/04/28 05:47:00;;;;;;;;;;;;;;;14.18;100.00;100396.81;7355614;19;19949;-62
2023/04/28 05:49:27;;;;;;;;;;;;;;;14.19;100.00;100394.00;7358932;19;20017;-63
2023/04/28 05:51:54;;;;;;;;;;;;;;;14.22;100.00;100401.56;7358507;19;19955;-62
2023/04/28 05:54:21;;;;;;;;;;;;;;;14.29;100.00;100404.28;7356792;19;19984;-62
2023/04/28 05:56:48;;;;;;;;;;;;;;;14.33;100.00;100411.66;7354447;19;21614;-63
2023/04/28 05:59:15;;;;;;;;;;;;;;;14.37;100.00;100406.88;7356415;19;19989;-62
2023/04/28 06:01:43;;;;;;;;;;;;;;;14.44;100.00;100415.66;7355762;19;20281;-64
2023/04/28 06:04:10;;;;;;;;;;;;;;;14.50;100.00;100409.63;7359310;19;20436;-62
2023/04/28 06:06:37;;;;;;;;;;;;;;;14.50;100.00;100415.75;7354685;19;19939;-62
2023/04/28 06:09:04;;;;;;;;;;;;;;;14.54;100.00;100418.81;7359028;19;20345;-64
2023/04/28 06:11:34;;;;;;;;;;;;;;;14.55;100.00;100413.34;7356041;19;19922;-62
2023/04/28 06:14:01;;;;;;;;;;;;;;;14.60;100.00;100418.09;7357862;19;19929;-63
2023/04/28 06:16:28;;;;;;;;;;;;;;;14.60;100.00;100422.56;7353020;19;20420;-64
2023/04/28 06:18:55;;;;;;;;;;;;;;;14.60;100.00;100420.72;7357476;19;19935;-63
2023/04/28 06:21:23;;;;;;;;;;;;;;;14.59;100.00;100428.84;7355321;19;19933;-64
2023/04/28 06:23:51;;;;;;;;;;;;;;;14.59;100.00;100432.31;7359411;19;19918;-64
2023/04/28 06:26:18;;;;;;;;;;;;;;;14.61;100.00;100430.31;7360424;19;19948;-63
2023/04/28 06:28:45;;;;;;;;;;;;;;;14.61;100.00;100430.31;7364421;19;20351;-63
2023/04/28 06:31:12;;;;;;;;;;;;;;;14.61;100.00;100438.25;7361174;19;20806;-63
2023/04/28 06:33:39;;;;;;;;;;;;;;;14.60;100.00;100439.25;7365891;19;19940;-61
2023/04/28 06:36:07;;;;;;;;;;;;;;;14.61;100.00;100442.72;7364414;19;20416;-62
2023/04/28 06:38:34;;;;;;;;;;;;;;;14.64;100.00;100440.53;7362563;19;20471;-63
2023/04/28 06:41:01;;;;;;;;;;;;;;;14.64;100.00;100443.16;7362692;19;19923;-65
2023/04/28 06:43:28;;;;;;;;;;;;;;;14.67;100.00;100449.94;7362949;19;19922;-63
2023/04/28 06:45:55;;;;;;;;;;;;;;;14.71;100.00;100452.00;7360434;19;19923;-63
2023/04/28 06:48:24;;;;;;;;;;;;;;;14.73;100.00;100449.97;7361055;19;20764;-63
2023/04/28 06:50:52;;;;;;;;;;;;;;;14.75;100.00;100447.16;7364481;19;19952;-63
2023/04/28 06:53:19;;;;;;;;;;;;;;;14.73;100.00;100457.91;7360984;19;20461;-62
2023/04/28 06:55:47;;;;;;;;;;;;;;;14.72;100.00;100458.13;7363797;19;19923;-63
2023/04/28 06:58:14;;;;;;;;;;;;;;;14.75;100.00;100460.38;7359673;19;20539;-62
2023/04/28 07:00:41;;;;;;;;;;;;;;;14.78;100.00;100458.19;7358003;19;20546;-62
2023/04/28 07:03:08;;;;;;;;;;;;;;;14.82;100.00;100454.16;7362776;19;19923;-62
2023/04/28 07:05:36;;;;;;;;;;;;;;;14.86;100.00;100454.59;7363350;19;21335;-62
2023/04/28 07:08:03;;;;;;;;;;;;;;;14.89;100.00;100465.63;7363848;19;19994;-62
2023/04/28 07:10:31;;;;;;;;;;;;;;;14.91;100.00;100462.78;7364077;19;19918;-64
2023/04/28 07:12:58;;;;;;;;;;;;;;;14.90;100.00;100467.28;7360476;19;19919;-66
2023/04/28 07:15:26;;;;;;;;;;;;;;;14.91;100.00;100470.75;7359209;19;19978;-63
2023/04/28 07:17:53;;;;;;;;;;;;;;;14.92;100.00;100467.09;7359072;19;19919;-62
2023/04/28 07:20:20;;;;;;;;;;;;;;;14.95;100.00;100475.47;7359217;19;19919;-61
2023/04/28 07:22:47;;;;;;;;;;;;;;;14.97;100.00;100473.47;7361804;19;19939;-61
2023/04/28 07:25:14;;;;;;;;;;;;;;;15.01;100.00;100484.50;7360385;19;19923;-64
2023/04/28 07:27:42;;;;;;;;;;;;;;;15.03;100.00;100481.66;7360044;19;20285;-63
2023/04/28 07:30:09;;;;;;;;;;;;;;;15.02;100.00;100477.38;7359894;19;20039;-65
2023/04/28 07:32:52;;;;;;;;;;;;;;;15.03;100.00;100487.78;7361568;19;20018;-63
2023/04/28 07:35:22;;;;;;;;;;;;;;;15.03;100.00;100487.78;7364875;19;20353;-63
2023/04/28 07:37:49;;;;;;;;;;;;;;;15.02;100.00;100487.97;7361907;19;19929;-62
2023/04/28 07:40:17;;;;;;;;;;;;;;;15.00;100.00;100496.09;7363344;19;20362;-62
2023/04/28 07:42:44;;;;;;;;;;;;;;;14.99;100.00;100499.75;7364406;19;19921;-62
2023/04/28 07:45:12;;;;;;;;;;;;;;;15.03;100.00;100501.03;7360201;19;20376;-63
2023/04/28 07:47:42;;;;;;;;;;;;;;;15.13;100.00;100503.34;7363736;19;20297;-63
2023/04/28 07:50:10;;;;;;;;;;;;;;;15.26;100.00;100508.75;7362607;19;19923;-63
2023/04/28 07:52:38;;;;;;;;;;;;;;;15.37;100.00;100506.41;7362001;19;19990;-63
2023/04/28 07:55:06;;;;;;;;;;;;;;;15.48;100.00;100507.72;7360530;19;20377;-62
2023/04/28 07:57:35;;;;;;;;;;;;;;;15.61;100.00;100512.31;7319849;19;19922;-62
2023/04/28 08:00:03;;;;;;;;;;;;;;;15.76;100.00;100513.88;7353624;19;19927;-62
2023/04/28 08:02:33;;;;;;;;;;;;;;;15.87;100.00;100501.06;7356080;19;19922;-63
2023/04/28 08:05:02;;;;;;;;;;;;;;;15.98;100.00;100517.28;7355491;19;19923;-63
2023/04/28 08:07:30;;;;;;;;;;;;;;;16.04;99.36;100532.44;7350650;19;19923;-62
2023/04/28 08:09:57;;;;;;;;;;;;;;;16.05;98.75;100515.47;7355963;19;19926;-63
2023/04/28 08:12:24;;;;;;;;;;;;;;;16.06;98.43;100527.72;7358037;19;19911;-62
2023/04/28 08:14:51;;;;;;;;;;;;;;;16.08;98.08;100527.53;7350457;19;19919;-63
2023/04/28 08:17:19;;;;;;;;;;;;;;;16.05;97.74;100527.94;7334843;19;20499;-64
2023/04/28 08:19:46;;;;;;;;;;;;;;;16.03;97.46;100524.66;7357816;19;20334;-63
2023/04/28 08:22:13;;;;;;;;;;;;;;;15.98;96.88;100533.19;7359414;19;19919;-63
2023/04/28 08:24:41;;;;;;;;;;;;;;;15.92;96.63;100525.19;7355791;19;19922;-64
2023/04/28 08:27:08;;;;;;;;;;;;;;;15.89;97.00;100528.25;7354018;19;19919;-62
2023/04/28 08:29:36;;;;;;;;;;;;;;;15.87;97.31;100527.59;7358248;19;19939;-61
2023/04/28 08:32:05;;;;;;;;;;;;;;;15.82;97.54;100531.66;7356762;19;20344;-64
2023/04/28 08:34:33;;;;;;;;;;;;;;;15.80;97.55;100531.03;7356918;19;19980;-62
2023/04/28 08:37:00;;;;;;;;;;;;;;;15.78;97.33;100535.72;7353062;19;19927;-62
2023/04/28 08:39:28;;;;;;;;;;;;;;;15.79;97.47;100540.03;7355652;19;19919;-63
2023/04/28 08:41:55;;;;;;;;;;;;;;;15.86;97.60;100531.28;7355734;19;20644;-63
2023/04/28 08:44:23;;;;;;;;;;;;;;;15.97;98.20;100536.03;7352852;19;19944;-61
2023/04/28 08:46:53;;;;;;;;;;;;;;;16.07;97.41;100539.97;7353639;19;19943;-62
2023/04/28 08:49:22;;;;;;;;;;;;;;;16.14;96.78;100540.03;7350647;19;19923;-63
2023/04/28 08:51:54;;;;;;;;;;;;;;;16.19;96.16;100541.09;7355649;19;19952;-63
2023/04/28 08:54:22;;;;;;;;;;;;;;;16.17;95.65;100548.41;7354663;19;19931;-63
2023/04/28 08:56:53;;;;;;;;;;;;;;;16.16;95.09;100541.47;7354940;19;20339;-62
2023/04/28 08:59:20;;;;;;;;;;;;;;;16.23;95.11;100544.97;7354267;19;20171;-62
2023/04/28 09:01:48;;;;;;;;;;;;;;;16.33;94.85;100543.78;7354787;19;19922;-62
2023/04/28 09:04:17;;;;;;;;;;;;;;;16.42;94.92;100547.91;7354326;19;19925;-63
2023/04/28 09:06:45;;;;;;;;;;;;;;;16.48;94.45;100553.25;7348802;19;19937;-63
2023/04/28 09:09:23;;;;;;;;;;;;;;;16.46;93.81;100547.31;7352697;19;19915;-64
2023/04/28 09:11:51;;;;;;;;;;;;;;;16.43;93.03;100554.88;7351171;19;20010;-61
2023/04/28 09:14:19;;;;;;;;;;;;;;;16.39;92.42;100567.72;7353520;19;19923;-63
2023/04/28 09:16:47;;;;;;;;;;;;;;;16.34;92.35;100564.84;7352584;19;20804;-63
2023/04/28 09:19:16;;;;;;;;;;;;;;;16.31;91.80;100564.41;7353274;19;20467;-63
2023/04/28 09:21:52;;;;;;;;;;;;;;;16.24;92.00;100564.38;7356680;19;20011;-62
2023/04/28 09:24:26;;;;;;;;;;;;;;;16.27;92.80;100574.59;7357355;19;19918;-62
2023/04/28 09:26:53;;;;;;;;;;;;;;;16.30;92.87;100571.56;7355421;19;19955;-62
2023/04/28 09:29:21;;;;;;;;;;;;;;;16.33;93.22;100575.66;7355385;19;19923;-63
2023/04/28 09:31:49;;;;;;;;;;;;;;;16.42;93.25;100574.47;7356335;19;19939;-62
2023/04/28 09:34:17;;;;;;;;;;;;;;;16.60;93.49;100578.28;7353596;19;19929;-62
2023/04/28 09:36:44;;;;;;;;;;;;;;;16.83;93.02;100574.47;7348751;19;19918;-62
2023/04/28 09:39:12;;;;;;;;;;;;;;;16.95;91.44;100575.53;7351042;19;19951;-63
2023/04/28 09:41:42;;;;;;;;;;;;;;;17.02;90.03;100579.00;7354174;19;19938;-62
2023/04/28 09:44:11;;;;;;;;;;;;;;;17.06;89.87;100585.59;7350226;19;21622;-63
2023/04/28 09:46:39;;;;;;;;;;;;;;;17.14;88.27;100580.06;7348351;19;19926;-62
2023/04/28 09:49:08;;;;;;;;;;;;;;;17.18;87.04;100585.81;7351226;19;19923;-62
2023/04/28 09:51:35;;;;;;;;;;;;;;;17.18;86.31;100591.13;7355283;19;20010;-63
2023/04/28 09:54:03;;;;;;;;;;;;;;;17.14;85.58;100576.59;7353271;19;19954;-62
2023/04/28 09:56:31;;;;;;;;;;;;;;;17.07;85.41;100595.19;7353627;19;19935;-62
2023/04/28 09:59:00;;;;;;;;;;;;;;;17.01;85.60;100588.84;7352187;19;21627;-61
2023/04/28 10:01:31;;;;;;;;;;;;;;;16.97;85.36;100594.75;7351848;19;19935;-61
2023/04/28 10:03:59;;;;;;;;;;;;;;;16.95;86.08;100592.31;7361295;19;19955;-62
2023/04/28 10:06:28;;;;;;;;;;;;;;;16.95;86.21;100592.31;7357762;19;19941;-62
2023/04/28 10:08:58;;;;;;;;;;;;;;;16.91;86.37;100599.06;7358549;19;19927;-62
2023/04/28 10:11:27;;;;;;;;;;;;;;;16.83;85.66;100603.69;7360601;19;20147;-61
2023/04/28 10:13:55;;;;;;;;;;;;;;;16.80;86.78;100601.44;7359840;19;19926;-60
2023/04/28 10:16:23;;;;;;;;;;;;;;;16.78;87.62;100614.09;7355391;19;19947;-63
2023/04/28 10:18:51;;;;;;;;;;;;;;;16.77;87.59;100620.44;7357743;19;19955;-62
2023/04/28 10:21:21;;;;;;;;;;;;;;;16.78;87.27;100614.94;7359128;19;19950;-61
2023/04/28 10:23:57;;;;;;;;;;;;;;;16.78;87.20;100617.59;7356780;19;19918;-62
2023/04/28 10:26:34;;;;;;;;;;;;;;;16.76;87.17;100632.91;7358088;19;19929;-64
2023/04/28 10:29:02;;;;;;;;;;;;;;;16.76;87.38;100624.94;7353200;19;19919;-63
2023/04/28 10:31:29;;;;;;;;;;;;;;;16.76;87.31;100632.09;7356846;19;20592;-62
2023/04/28 10:34:17;;;;;;;;;;;;;;;16.71;87.24;100639.84;7354521;19;20256;-63
2023/04/28 10:36:46;;;;;;;;;;;;;;;16.66;87.83;100641.25;7360622;19;19943;-62
2023/04/28 10:39:14;;;;;;;;;;;;;;;16.63;87.85;100641.66;7356532;19;19923;-63
2023/04/28 10:41:41;;;;;;;;;;;;;;;16.66;88.27;100643.06;7358600;19;19922;-64
2023/04/28 10:44:17;;;;;;;;;;;;;;;16.69;88.79;100653.31;7339389;19;19938;-62
2023/04/28 10:46:59;;;;;;;;;;;;;;;16.71;89.32;100655.78;7356367;19;19914;-63
2023/04/28 10:49:36;;;;;;;;;;;;;;;16.76;89.71;100656.03;7359522;19;20495;-63
2023/04/28 10:52:23;;;;;;;;;;;;;;;16.79;89.47;100656.44;7360556;19;19945;-61
2023/04/28 10:55:10;;;;;;;;;;;;;;;16.87;88.66;100658.09;7354735;19;19919;-62
2023/04/28 10:58:07;;;;;;;;;;;;;;;16.90;88.62;100660.38;7354415;19;19918;-63
2023/04/28 11:00:34;;;;;;;;;;;;;;;16.94;88.87;100664.28;7355388;19;19934;-62
2023/04/28 11:03:02;;;;;;;;;;;;;;;16.98;88.86;100663.66;7357348;19;19923;-62
2023/04/28 11:05:31;;;;;;;;;;;;;;;17.04;88.80;100673.53;7358834;19;19914;-62
2023/04/28 11:08:08;;;;;;;;;;;;;;;17.15;88.40;100676.63;7357975;19;19922;-62
2023/04/28 11:10:45;;;;;;;;;;;;;;;17.24;87.58;100667.44;7359580;19;19915;-64
2023/04/28 11:13:23;;;;;;;;;;;;;;;17.34;86.42;100671.38;7355205;19;19915;-63
2023/04/28 11:16:01;;;;;;;;;;;;;;;17.44;85.09;100674.47;7355653;19;19958;-63
2023/04/28 11:18:29;;;;;;;;;;;;;;;17.52;83.95;100676.91;7355824;19;19947;-62
2023/04/28 11:20:57;;;;;;;;;;;;;;;17.54;83.69;100677.53;7354949;19;20664;-65
2023/04/28 11:23:28;;;;;;;;;;;;;;;17.52;84.45;100670.81;7359178;19;19938;-62
2023/04/28 11:25:56;;;;;;;;;;;;;;;17.50;83.94;100680.81;7356397;19;19922;-62
2023/04/28 11:28:24;;;;;;;;;;;;;;;17.43;83.45;100672.81;7359489;19;20726;-63
2023/04/28 11:30:51;;;;;;;;;;;;;;;17.37;82.50;100676.28;7357102;19;19936;-63
2023/04/28 11:33:19;;;;;;;;;;;;;;;17.27;82.40;100686.47;7356883;19;20827;-63
2023/04/28 11:35:47;;;;;;;;;;;;;;;17.19;83.14;100684.00;7355622;19;19914;-63
2023/04/28 11:38:14;;;;;;;;;;;;;;;17.13;83.71;100684.78;7356638;19;19914;-64
2023/04/28 11:40:55;;;;;;;;;;;;;;;17.09;84.84;100697.69;7358773;19;19922;-63
2023/04/28 11:43:30;;;;;;;;;;;;;;;17.06;85.54;100697.25;7357280;19;20247;-62
2023/04/28 11:46:21;;;;;;;;;;;;;;;17.07;84.78;100702.34;7350922;19;19922;-61
2023/04/28 11:49:01;;;;;;;;;;;;;;;17.11;84.19;100702.81;7355167;19;19930;-63
2023/04/28 11:51:31;;;;;;;;;;;;;;;17.22;84.18;100702.22;7361254;19;20491;-62
2023/04/28 11:53:59;;;;;;;;;;;;;;;17.35;83.10;100698.78;7354517;19;19961;-62
2023/04/28 11:56:26;;;;;;;;;;;;;;;17.49;81.36;100708.44;7353497;19;20631;-63
2023/04/28 11:59:04;;;;;;;;;;;;;;;17.63;80.77;100704.81;7352494;19;19928;-63
2023/04/28 12:01:32;;;;;;;;;;;;;;;17.76;79.35;100704.84;7352730;19;19929;-63
2023/04/28 12:03:59;;;;;;;;;;;;;;;17.83;78.92;100710.97;7352335;19;20007;-62
2023/04/28 12:06:27;;;;;;;;;;;;;;;17.89;78.66;100704.84;7345171;19;19922;-62
2023/04/28 12:08:56;;;;;;;;;;;;;;;17.98;79.56;100713.47;7348234;19;19919;-62
2023/04/28 12:11:24;;;;;;;;;;;;;;;18.02;78.41;100712.06;7355200;19;20669;-61
2023/04/28 12:14:02;;;;;;;;;;;;;;;18.05;77.98;100713.47;7356871;19;19943;-61
2023/04/28 12:16:38;;;;;;;;;;;;;;;18.09;77.66;100712.03;7352581;19;19927;-63
2023/04/28 12:19:08;;;;;;;;;;;;;;;18.17;77.88;100710.00;7353522;19;19935;-64
2023/04/28 12:21:37;;;;;;;;;;;;;;;18.20;77.50;100717.56;7355714;19;20237;-62
2023/04/28 12:24:12;;;;;;;;;;;;;;;18.21;77.22;100718.41;7352997;19;19982;-62
2023/04/28 12:26:39;;;;;;;;;;;;;;;18.23;76.78;100727.00;7350313;19;19919;-62
2023/04/28 12:29:09;;;;;;;;;;;;;;;18.21;75.81;100726.38;7353880;19;19945;-62
2023/04/28 12:31:45;;;;;;;;;;;;;;;18.20;76.02;100728.22;7354632;19;19986;-62
2023/04/28 12:34:13;;;;;;;;;;;;;;;18.15;76.23;100732.53;7354616;19;19923;-62
2023/04/28 12:36:41;;;;;;;;;;;;;;;18.16;76.25;100737.66;7349176;19;19927;-63